sensor_id;sensor_type;location;lat;lon;timestamp;temperature;humidity
39519;DHT22;25200;53.394;10.414;2023-01-05T00:01:51;10.30;93.90
39519;DHT22;25200;53.394;10.414;2023-01-05T00:04:17;10.30;93.90
39519;DHT22;25200;53.394;10.414;2023-01-05T00:06:43;10.30;93.80
39519;DHT22;25200;53.394;10.414;2023-01-05T00:09:15;10.30;93.80
39519;DHT22;25200;53.394;10.414;2023-01-05T00:11:42;10.30;93.80
39519;DHT22;25200;53.394;10.414;2023-01-05T00:14:29;10.30;93.80
39519;DHT22;25200;53.394;10.414;2023-01-05T00:17:16;10.30;93.80
39519;DHT22;25200;53.394;10.414;2023-01-05T00:20:01;10.30;93.80
39519;DHT22;25200;53.394;10.414;2023-01-05T00:22:46;10.30;93.80
39519;DHT22;25200;53.394;10.414;2023-01-05T00:25:15;10.30;93.80
39519;DHT22;25200;53.394;10.414;2023-01-05T00:27:43;10.30;93.80
39519;DHT22;25200;53.394;10.414;2023-01-05T00:30:11;10.30;93.90
39519;DHT22;25200;53.394;10.414;2023-01-05T00:32:38;10.30;93.80
39519;DHT22;25200;53.394;10.414;2023-01-05T00:35:05;10.30;93.80
39519;DHT22;25200;53.394;10.414;2023-01-05T00:37:33;10.30;93.80
39519;DHT22;25200;53.394;10.414;2023-01-05T00:39:59;10.30;93.90
39519;DHT22;25200;53.394;10.414;2023-01-05T00:42:24;10.30;93.80
39519;DHT22;25200;53.394;10.414;2023-01-05T00:44:50;10.30;93.90
39519;DHT22;25200;53.394;10.414;2023-01-05T00:47:16;10.30;93.80
39519;DHT22;25200;53.394;10.414;2023-01-05T00:49:42;10.30;93.80
39519;DHT22;25200;53.394;10.414;2023-01-05T00:52:07;10.30;93.90
39519;DHT22;25200;53.394;10.414;2023-01-05T00:54:33;10.30;93.90
39519;DHT22;25200;53.394;10.414;2023-01-05T00:57:00;10.30;93.90
39519;DHT22;25200;53.394;10.414;2023-01-05T00:59:26;10.30;93.90
39519;DHT22;25200;53.394;10.414;2023-01-05T01:01:52;10.30;93.80
39519;DHT22;25200;53.394;10.414;2023-01-05T01:04:18;10.20;93.80
39519;DHT22;25200;53.394;10.414;2023-01-05T01:06:45;10.20;93.80
39519;DHT22;25200;53.394;10.414;2023-01-05T01:09:11;10.20;93.80
39519;DHT22;25200;53.394;10.414;2023-01-05T01:11:37;10.20;93.80
39519;DHT22;25200;53.394;10.414;2023-01-05T01:14:05;10.20;93.80
39519;DHT22;25200;53.394;10.414;2023-01-05T01:16:31;10.20;93.80
39519;DHT22;25200;53.394;10.414;2023-01-05T01:18:57;10.20;93.80
39519;DHT22;25200;53.394;10.414;2023-01-05T01:21:23;10.20;93.80
39519;DHT22;25200;53.394;10.414;2023-01-05T01:23:48;10.20;93.80
39519;DHT22;25200;53.394;10.414;2023-01-05T01:26:14;10.20;93.80
39519;DHT22;25200;53.394;10.414;2023-01-05T01:28:39;10.20;93.80
39519;DHT22;25200;53.394;10.414;2023-01-05T01:31:05;10.10;93.80
39519;DHT22;25200;53.394;10.414;2023-01-05T01:33:32;10.10;93.80
39519;DHT22;25200;53.394;10.414;2023-01-05T01:36:03;10.10;93.80
39519;DHT22;25200;53.394;10.414;2023-01-05T01:38:29;10.10;93.80
39519;DHT22;25200;53.394;10.414;2023-01-05T01:40:55;10.10;93.80
39519;DHT22;25200;53.394;10.414;2023-01-05T01:43:43;10.10;93.80
39519;DHT22;25200;53.394;10.414;2023-01-05T01:46:10;10.10;93.80
39519;DHT22;25200;53.394;10.414;2023-01-05T01:48:38;10.10;93.80
39519;DHT22;25200;53.394;10.414;2023-01-05T01:51:09;10.10;93.80
39519;DHT22;25200;53.394;10.414;2023-01-05T01:53:41;10.10;93.80
39519;DHT22;25200;53.394;10.414;2023-01-05T01:56:10;10.10;93.80
39519;DHT22;25200;53.394;10.414;2023-01-05T01:58:37;10.10;93.80
39519;DHT22;25200;53.394;10.414;2023-01-05T02:01:03;10.10;93.80
39519;DHT22;25200;53.394;10.414;2023-01-05T02:03:29;10.00;93.80
39519;DHT22;25200;53.394;10.414;2023-01-05T02:05:56;10.00;93.80
39519;DHT22;25200;53.394;10.414;2023-01-05T02:08:22;10.00;94.00
39519;DHT22;25200;53.394;10.414;2023-01-05T02:28:07;10.00;93.70
39519;DHT22;25200;53.394;10.414;2023-01-05T02:31:04;10.00;93.70
39519;DHT22;25200;53.394;10.414;2023-01-05T02:33:35;10.00;93.70
39519;DHT22;25200;53.394;10.414;2023-01-05T02:41:43;9.90;93.70
39519;DHT22;25200;53.394;10.414;2023-01-05T02:44:09;9.90;93.70
39519;DHT22;25200;53.394;10.414;2023-01-05T02:46:36;9.90;93.70
39519;DHT22;25200;53.394;10.414;2023-01-05T02:49:03;9.90;93.70
39519;DHT22;25200;53.394;10.414;2023-01-05T02:51:36;9.90;93.70
39519;DHT22;25200;53.394;10.414;2023-01-05T02:54:23;9.80;93.60
39519;DHT22;25200;53.394;10.414;2023-01-05T02:57:03;9.90;93.70
39519;DHT22;25200;53.394;10.414;2023-01-05T02:59:40;9.90;93.70
39519;DHT22;25200;53.394;10.414;2023-01-05T03:02:28;9.80;93.60
39519;DHT22;25200;53.394;10.414;2023-01-05T03:05:04;9.80;93.60
39519;DHT22;25200;53.394;10.414;2023-01-05T03:07:35;9.80;93.60
39519;DHT22;25200;53.394;10.414;2023-01-05T03:10:03;9.80;93.60
39519;DHT22;25200;53.394;10.414;2023-01-05T03:12:54;9.80;93.60
39519;DHT22;25200;53.394;10.414;2023-01-05T03:15:42;9.70;93.60
39519;DHT22;25200;53.394;10.414;2023-01-05T03:18:16;9.70;93.60
39519;DHT22;25200;53.394;10.414;2023-01-05T03:20:46;9.70;93.60
39519;DHT22;25200;53.394;10.414;2023-01-05T03:23:15;9.70;93.60
39519;DHT22;25200;53.394;10.414;2023-01-05T03:26:00;9.70;93.60
39519;DHT22;25200;53.394;10.414;2023-01-05T03:28:53;9.70;93.60
39519;DHT22;25200;53.394;10.414;2023-01-05T03:31:59;9.70;93.60
39519;DHT22;25200;53.394;10.414;2023-01-05T03:35:02;9.70;93.60
39519;DHT22;25200;53.394;10.414;2023-01-05T03:37:52;9.70;93.50
39519;DHT22;25200;53.394;10.414;2023-01-05T03:40:39;9.60;93.60
39519;DHT22;25200;53.394;10.414;2023-01-05T03:43:05;9.60;93.50
39519;DHT22;25200;53.394;10.414;2023-01-05T03:45:44;9.60;93.60
39519;DHT22;25200;53.394;10.414;2023-01-05T03:48:14;9.60;93.60
39519;DHT22;25200;53.394;10.414;2023-01-05T03:50:40;9.60;93.60
39519;DHT22;25200;53.394;10.414;2023-01-05T03:53:06;9.60;93.50
39519;DHT22;25200;53.394;10.414;2023-01-05T03:55:32;9.60;93.60
39519;DHT22;25200;53.394;10.414;2023-01-05T03:57:58;9.60;93.60
39519;DHT22;25200;53.394;10.414;2023-01-05T04:00:24;9.60;93.60
39519;DHT22;25200;53.394;10.414;2023-01-05T04:02:50;9.60;93.50
39519;DHT22;25200;53.394;10.414;2023-01-05T04:05:16;9.60;93.50
39519;DHT22;25200;53.394;10.414;2023-01-05T04:07:41;9.60;93.50
39519;DHT22;25200;53.394;10.414;2023-01-05T04:10:08;9.60;93.50
39519;DHT22;25200;53.394;10.414;2023-01-05T04:12:33;9.60;93.50
39519;DHT22;25200;53.394;10.414;2023-01-05T04:15:01;9.60;93.40
39519;DHT22;25200;53.394;10.414;2023-01-05T04:17:28;9.50;93.40
39519;DHT22;25200;53.394;10.414;2023-01-05T04:19:53;9.50;93.40
39519;DHT22;25200;53.394;10.414;2023-01-05T04:22:19;9.50;93.40
39519;DHT22;25200;53.394;10.414;2023-01-05T04:24:44;9.40;93.40
39519;DHT22;25200;53.394;10.414;2023-01-05T04:27:10;9.40;93.40
39519;DHT22;25200;53.394;10.414;2023-01-05T04:29:36;9.40;93.40
39519;DHT22;25200;53.394;10.414;2023-01-05T04:32:01;9.30;93.40
39519;DHT22;25200;53.394;10.414;2023-01-05T04:34:27;9.30;93.40
39519;DHT22;25200;53.394;10.414;2023-01-05T04:36:53;9.30;93.40
39519;DHT22;25200;53.394;10.414;2023-01-05T04:39:18;9.30;93.40
39519;DHT22;25200;53.394;10.414;2023-01-05T04:41:44;9.30;93.40
39519;DHT22;25200;53.394;10.414;2023-01-05T04:44:10;9.20;93.30
39519;DHT22;25200;53.394;10.414;2023-01-05T04:46:35;9.20;93.30
39519;DHT22;25200;53.394;10.414;2023-01-05T04:49:01;9.20;93.30
39519;DHT22;25200;53.394;10.414;2023-01-05T04:51:26;9.10;93.30
39519;DHT22;25200;53.394;10.414;2023-01-05T04:53:52;9.10;93.30
39519;DHT22;25200;53.394;10.414;2023-01-05T04:56:18;9.00;93.30
39519;DHT22;25200;53.394;10.414;2023-01-05T04:58:43;9.00;93.30
39519;DHT22;25200;53.394;10.414;2023-01-05T05:01:09;9.00;93.30
39519;DHT22;25200;53.394;10.414;2023-01-05T05:03:35;9.00;93.30
39519;DHT22;25200;53.394;10.414;2023-01-05T05:06:01;9.00;93.30
39519;DHT22;25200;53.394;10.414;2023-01-05T05:08:26;8.90;93.30
39519;DHT22;25200;53.394;10.414;2023-01-05T05:10:52;8.90;93.30
39519;DHT22;25200;53.394;10.414;2023-01-05T05:13:18;8.90;93.30
39519;DHT22;25200;53.394;10.414;2023-01-05T05:15:44;8.80;93.30
39519;DHT22;25200;53.394;10.414;2023-01-05T05:18:09;8.80;93.30
39519;DHT22;25200;53.394;10.414;2023-01-05T05:20:36;8.80;93.30
39519;DHT22;25200;53.394;10.414;2023-01-05T05:23:02;8.80;93.30
39519;DHT22;25200;53.394;10.414;2023-01-05T05:25:27;8.80;93.30
39519;DHT22;25200;53.394;10.414;2023-01-05T05:27:53;8.70;93.30
39519;DHT22;25200;53.394;10.414;2023-01-05T05:30:19;8.70;93.30
39519;DHT22;25200;53.394;10.414;2023-01-05T05:32:44;8.70;93.30
39519;DHT22;25200;53.394;10.414;2023-01-05T05:35:10;8.70;93.30
39519;DHT22;25200;53.394;10.414;2023-01-05T05:37:36;8.70;93.30
39519;DHT22;25200;53.394;10.414;2023-01-05T05:40:02;8.70;93.30
39519;DHT22;25200;53.394;10.414;2023-01-05T05:42:28;8.80;93.30
39519;DHT22;25200;53.394;10.414;2023-01-05T05:44:53;8.70;93.20
39519;DHT22;25200;53.394;10.414;2023-01-05T05:47:19;8.80;93.20
39519;DHT22;25200;53.394;10.414;2023-01-05T05:49:45;8.70;93.30
39519;DHT22;25200;53.394;10.414;2023-01-05T05:52:10;8.70;93.30
39519;DHT22;25200;53.394;10.414;2023-01-05T05:54:36;8.70;93.20
39519;DHT22;25200;53.394;10.414;2023-01-05T05:57:01;8.70;93.30
39519;DHT22;25200;53.394;10.414;2023-01-05T05:59:27;8.80;93.30
39519;DHT22;25200;53.394;10.414;2023-01-05T06:01:53;8.80;93.20
39519;DHT22;25200;53.394;10.414;2023-01-05T06:04:18;8.80;93.20
39519;DHT22;25200;53.394;10.414;2023-01-05T06:06:44;8.80;93.20
39519;DHT22;25200;53.394;10.414;2023-01-05T06:09:09;8.80;93.20
39519;DHT22;25200;53.394;10.414;2023-01-05T06:11:35;8.80;93.20
39519;DHT22;25200;53.394;10.414;2023-01-05T06:14:01;8.80;93.20
39519;DHT22;25200;53.394;10.414;2023-01-05T06:16:27;8.80;93.20
39519;DHT22;25200;53.394;10.414;2023-01-05T06:18:53;8.80;93.20
39519;DHT22;25200;53.394;10.414;2023-01-05T06:21:19;8.80;93.10
39519;DHT22;25200;53.394;10.414;2023-01-05T06:23:46;8.90;93.20
39519;DHT22;25200;53.394;10.414;2023-01-05T06:26:12;8.90;93.20
39519;DHT22;25200;53.394;10.414;2023-01-05T06:28:37;8.90;93.10
39519;DHT22;25200;53.394;10.414;2023-01-05T06:31:03;8.90;93.10
39519;DHT22;25200;53.394;10.414;2023-01-05T06:33:29;8.90;93.10
39519;DHT22;25200;53.394;10.414;2023-01-05T06:35:54;8.90;93.10
39519;DHT22;25200;53.394;10.414;2023-01-05T06:38:23;8.90;93.10
39519;DHT22;25200;53.394;10.414;2023-01-05T06:40:48;8.90;93.10
39519;DHT22;25200;53.394;10.414;2023-01-05T06:43:14;8.90;93.10
39519;DHT22;25200;53.394;10.414;2023-01-05T06:45:40;8.90;93.10
39519;DHT22;25200;53.394;10.414;2023-01-05T06:48:05;8.90;93.10
39519;DHT22;25200;53.394;10.414;2023-01-05T06:50:31;8.90;93.00
39519;DHT22;25200;53.394;10.414;2023-01-05T06:52:57;8.90;93.00
39519;DHT22;25200;53.394;10.414;2023-01-05T06:55:23;9.00;93.00
39519;DHT22;25200;53.394;10.414;2023-01-05T06:57:49;8.90;93.00
39519;DHT22;25200;53.394;10.414;2023-01-05T07:00:15;8.90;93.10
39519;DHT22;25200;53.394;10.414;2023-01-05T07:02:41;8.90;93.00
39519;DHT22;25200;53.394;10.414;2023-01-05T07:05:07;9.00;93.30
39519;DHT22;25200;53.394;10.414;2023-01-05T07:07:34;9.00;93.00
39519;DHT22;25200;53.394;10.414;2023-01-05T07:10:00;9.00;92.90
39519;DHT22;25200;53.394;10.414;2023-01-05T07:12:26;9.00;93.00
39519;DHT22;25200;53.394;10.414;2023-01-05T07:14:52;8.90;92.90
39519;DHT22;25200;53.394;10.414;2023-01-05T07:17:18;9.00;93.00
39519;DHT22;25200;53.394;10.414;2023-01-05T07:19:43;9.00;92.90
39519;DHT22;25200;53.394;10.414;2023-01-05T07:22:09;8.90;93.00
39519;DHT22;25200;53.394;10.414;2023-01-05T07:24:35;8.90;93.00
39519;DHT22;25200;53.394;10.414;2023-01-05T07:27:00;8.90;93.00
39519;DHT22;25200;53.394;10.414;2023-01-05T07:29:26;9.00;92.90
39519;DHT22;25200;53.394;10.414;2023-01-05T07:31:52;9.00;92.90
39519;DHT22;25200;53.394;10.414;2023-01-05T07:34:20;8.90;92.80
39519;DHT22;25200;53.394;10.414;2023-01-05T07:36:46;8.90;92.80
39519;DHT22;25200;53.394;10.414;2023-01-05T07:39:12;8.90;92.80
39519;DHT22;25200;53.394;10.414;2023-01-05T07:41:37;8.90;92.80
39519;DHT22;25200;53.394;10.414;2023-01-05T07:44:03;8.90;92.80
39519;DHT22;25200;53.394;10.414;2023-01-05T07:46:29;8.90;92.70
39519;DHT22;25200;53.394;10.414;2023-01-05T07:48:54;8.90;92.80
39519;DHT22;25200;53.394;10.414;2023-01-05T07:51:20;9.00;92.80
39519;DHT22;25200;53.394;10.414;2023-01-05T07:53:46;8.90;92.70
39519;DHT22;25200;53.394;10.414;2023-01-05T07:56:12;8.90;92.70
39519;DHT22;25200;53.394;10.414;2023-01-05T07:58:39;8.90;92.80
39519;DHT22;25200;53.394;10.414;2023-01-05T08:01:06;8.90;92.80
39519;DHT22;25200;53.394;10.414;2023-01-05T08:03:32;8.90;92.80
39519;DHT22;25200;53.394;10.414;2023-01-05T08:06:02;8.90;92.80
39519;DHT22;25200;53.394;10.414;2023-01-05T08:08:27;8.90;92.70
39519;DHT22;25200;53.394;10.414;2023-01-05T08:10:53;8.90;92.70
39519;DHT22;25200;53.394;10.414;2023-01-05T08:13:19;9.00;92.70
39519;DHT22;25200;53.394;10.414;2023-01-05T08:16:03;9.00;92.60
39519;DHT22;25200;53.394;10.414;2023-01-05T08:18:29;8.90;92.70
39519;DHT22;25200;53.394;10.414;2023-01-05T08:20:57;8.90;92.70
39519;DHT22;25200;53.394;10.414;2023-01-05T08:23:24;8.90;92.70
39519;DHT22;25200;53.394;10.414;2023-01-05T08:25:50;9.00;92.70
39519;DHT22;25200;53.394;10.414;2023-01-05T08:28:16;8.90;92.70
39519;DHT22;25200;53.394;10.414;2023-01-05T08:30:42;9.00;92.70
39519;DHT22;25200;53.394;10.414;2023-01-05T08:33:08;9.00;92.70
39519;DHT22;25200;53.394;10.414;2023-01-05T08:35:33;9.00;92.70
39519;DHT22;25200;53.394;10.414;2023-01-05T08:37:59;9.00;92.60
39519;DHT22;25200;53.394;10.414;2023-01-05T08:40:25;9.00;92.70
39519;DHT22;25200;53.394;10.414;2023-01-05T08:42:50;9.00;92.70
39519;DHT22;25200;53.394;10.414;2023-01-05T08:45:17;9.00;92.60
39519;DHT22;25200;53.394;10.414;2023-01-05T08:47:43;9.00;92.70
39519;DHT22;25200;53.394;10.414;2023-01-05T08:50:10;9.00;92.70
39519;DHT22;25200;53.394;10.414;2023-01-05T08:52:37;9.00;92.70
39519;DHT22;25200;53.394;10.414;2023-01-05T08:55:04;9.00;92.60
39519;DHT22;25200;53.394;10.414;2023-01-05T08:57:30;9.10;92.60
39519;DHT22;25200;53.394;10.414;2023-01-05T08:59:56;9.10;92.60
39519;DHT22;25200;53.394;10.414;2023-01-05T09:02:21;9.10;92.70
39519;DHT22;25200;53.394;10.414;2023-01-05T09:04:47;9.10;92.60
39519;DHT22;25200;53.394;10.414;2023-01-05T09:07:13;9.10;92.70
39519;DHT22;25200;53.394;10.414;2023-01-05T09:09:38;9.10;92.70
39519;DHT22;25200;53.394;10.414;2023-01-05T09:12:04;9.10;93.00
39519;DHT22;25200;53.394;10.414;2023-01-05T09:14:30;9.10;92.70
39519;DHT22;25200;53.394;10.414;2023-01-05T09:16:56;9.00;92.70
39519;DHT22;25200;53.394;10.414;2023-01-05T09:19:22;9.00;92.70
39519;DHT22;25200;53.394;10.414;2023-01-05T09:21:48;9.00;92.70
39519;DHT22;25200;53.394;10.414;2023-01-05T09:24:14;9.00;92.80
39519;DHT22;25200;53.394;10.414;2023-01-05T09:26:40;9.00;92.70
39519;DHT22;25200;53.394;10.414;2023-01-05T09:29:06;9.00;92.80
39519;DHT22;25200;53.394;10.414;2023-01-05T09:31:32;9.00;92.80
39519;DHT22;25200;53.394;10.414;2023-01-05T09:33:58;9.00;92.80
39519;DHT22;25200;53.394;10.414;2023-01-05T09:36:24;9.00;92.80
39519;DHT22;25200;53.394;10.414;2023-01-05T09:38:54;9.00;92.80
39519;DHT22;25200;53.394;10.414;2023-01-05T09:44:10;9.00;92.80
39519;DHT22;25200;53.394;10.414;2023-01-05T09:46:40;9.00;92.80
39519;DHT22;25200;53.394;10.414;2023-01-05T09:49:12;9.00;92.90
39519;DHT22;25200;53.394;10.414;2023-01-05T09:51:38;9.00;92.90
39519;DHT22;25200;53.394;10.414;2023-01-05T09:54:04;9.00;92.90
39519;DHT22;25200;53.394;10.414;2023-01-05T09:56:33;9.00;92.90
39519;DHT22;25200;53.394;10.414;2023-01-05T09:59:23;9.00;92.90
39519;DHT22;25200;53.394;10.414;2023-01-05T10:01:51;9.00;92.90
39519;DHT22;25200;53.394;10.414;2023-01-05T10:04:21;9.00;92.90
39519;DHT22;25200;53.394;10.414;2023-01-05T10:06:51;9.10;92.90
39519;DHT22;25200;53.394;10.414;2023-01-05T10:09:21;9.00;92.80
39519;DHT22;25200;53.394;10.414;2023-01-05T10:11:52;9.00;92.80
39519;DHT22;25200;53.394;10.414;2023-01-05T10:14:39;9.00;92.80
39519;DHT22;25200;53.394;10.414;2023-01-05T10:17:13;9.00;92.80
39519;DHT22;25200;53.394;10.414;2023-01-05T10:19:40;9.00;92.80
39519;DHT22;25200;53.394;10.414;2023-01-05T10:25:20;9.00;92.90
39519;DHT22;25200;53.394;10.414;2023-01-05T10:34:14;9.00;92.90
39519;DHT22;25200;53.394;10.414;2023-01-05T10:46:47;9.00;92.90
39519;DHT22;25200;53.394;10.414;2023-01-05T10:49:25;9.00;92.90
39519;DHT22;25200;53.394;10.414;2023-01-05T10:51:51;9.10;93.00
39519;DHT22;25200;53.394;10.414;2023-01-05T10:54:37;9.10;93.00
39519;DHT22;25200;53.394;10.414;2023-01-05T11:00:16;9.20;92.90
39519;DHT22;25200;53.394;10.414;2023-01-05T11:02:59;9.20;92.90
39519;DHT22;25200;53.394;10.414;2023-01-05T11:05:26;9.20;93.00
39519;DHT22;25200;53.394;10.414;2023-01-05T11:07:57;9.20;92.90
39519;DHT22;25200;53.394;10.414;2023-01-05T11:13:35;9.20;92.90
39519;DHT22;25200;53.394;10.414;2023-01-05T11:16:06;9.30;93.00
39519;DHT22;25200;53.394;10.414;2023-01-05T11:18:45;9.30;93.00
39519;DHT22;25200;53.394;10.414;2023-01-05T11:21:59;9.30;93.00
39519;DHT22;25200;53.394;10.414;2023-01-05T11:24:00;9.40;93.00
39519;DHT22;25200;53.394;10.414;2023-01-05T11:26:46;9.40;93.00
39519;DHT22;25200;53.394;10.414;2023-01-05T11:29:16;9.50;93.00
39519;DHT22;25200;53.394;10.414;2023-01-05T11:37:05;9.40;92.80
39519;DHT22;25200;53.394;10.414;2023-01-05T11:47:31;9.30;92.80
39519;DHT22;25200;53.394;10.414;2023-01-05T11:50:04;9.40;92.80
39519;DHT22;25200;53.394;10.414;2023-01-05T11:52:39;9.40;92.80
39519;DHT22;25200;53.394;10.414;2023-01-05T12:04:04;9.30;92.80
39519;DHT22;25200;53.394;10.414;2023-01-05T12:09:32;9.40;92.80
39519;DHT22;25200;53.394;10.414;2023-01-05T12:36:26;9.40;92.80
39519;DHT22;25200;53.394;10.414;2023-01-05T12:49:54;9.40;92.80
39519;DHT22;25200;53.394;10.414;2023-01-05T12:52:24;9.40;92.70
39519;DHT22;25200;53.394;10.414;2023-01-05T12:55:19;9.50;92.80
39519;DHT22;25200;53.394;10.414;2023-01-05T12:57:48;9.40;92.70
39519;DHT22;25200;53.394;10.414;2023-01-05T13:00:17;9.40;92.70
39519;DHT22;25200;53.394;10.414;2023-01-05T13:05:26;9.40;92.80
39519;DHT22;25200;53.394;10.414;2023-01-05T13:07:57;9.40;92.70
39519;DHT22;25200;53.394;10.414;2023-01-05T13:13:06;9.40;92.80
39519;DHT22;25200;53.394;10.414;2023-01-05T13:15:38;9.40;92.80
39519;DHT22;25200;53.394;10.414;2023-01-05T13:18:10;9.50;92.80
39519;DHT22;25200;53.394;10.414;2023-01-05T13:20:53;9.40;92.70
39519;DHT22;25200;53.394;10.414;2023-01-05T13:23:33;9.40;92.70
39519;DHT22;25200;53.394;10.414;2023-01-05T13:26:00;9.40;92.70
39519;DHT22;25200;53.394;10.414;2023-01-05T13:28:27;9.50;92.70
39519;DHT22;25200;53.394;10.414;2023-01-05T13:45:06;9.40;92.70
39519;DHT22;25200;53.394;10.414;2023-01-05T13:53:18;9.50;92.80
39519;DHT22;25200;53.394;10.414;2023-01-05T13:56:05;9.50;92.80
39519;DHT22;25200;53.394;10.414;2023-01-05T13:59:01;9.50;92.70
39519;DHT22;25200;53.394;10.414;2023-01-05T14:01:43;9.50;92.70
39519;DHT22;25200;53.394;10.414;2023-01-05T14:04:23;9.50;92.60
39519;DHT22;25200;53.394;10.414;2023-01-05T14:06:52;9.40;92.80
39519;DHT22;25200;53.394;10.414;2023-01-05T14:09:28;9.40;92.30
39519;DHT22;25200;53.394;10.414;2023-01-05T14:14:59;9.30;92.40
39519;DHT22;25200;53.394;10.414;2023-01-05T14:20:49;9.30;92.50
39519;DHT22;25200;53.394;10.414;2023-01-05T14:30:42;9.20;92.60
39519;DHT22;25200;53.394;10.414;2023-01-05T14:33:08;9.20;92.60
39519;DHT22;25200;53.394;10.414;2023-01-05T14:35:35;9.20;92.60
39519;DHT22;25200;53.394;10.414;2023-01-05T14:38:14;9.20;92.60
39519;DHT22;25200;53.394;10.414;2023-01-05T14:40:50;9.20;92.60
39519;DHT22;25200;53.394;10.414;2023-01-05T14:48:40;9.20;92.60
39519;DHT22;25200;53.394;10.414;2023-01-05T14:53:42;9.20;92.60
39519;DHT22;25200;53.394;10.414;2023-01-05T14:56:15;9.20;92.60
39519;DHT22;25200;53.394;10.414;2023-01-05T15:01:52;9.20;92.60
39519;DHT22;25200;53.394;10.414;2023-01-05T15:04:31;9.20;92.60
39519;DHT22;25200;53.394;10.414;2023-01-05T15:18:14;9.10;92.60
39519;DHT22;25200;53.394;10.414;2023-01-05T15:34:10;8.80;92.60
39519;DHT22;25200;53.394;10.414;2023-01-05T15:39:46;8.80;92.60
39519;DHT22;25200;53.394;10.414;2023-01-05T15:42:17;8.80;92.60
39519;DHT22;25200;53.394;10.414;2023-01-05T15:44:46;8.70;92.70
39519;DHT22;25200;53.394;10.414;2023-01-05T15:47:12;8.70;92.70
39519;DHT22;25200;53.394;10.414;2023-01-05T15:49:38;8.70;92.70
39519;DHT22;25200;53.394;10.414;2023-01-05T15:52:05;8.70;92.90
39519;DHT22;25200;53.394;10.414;2023-01-05T15:54:40;8.70;92.70
39519;DHT22;25200;53.394;10.414;2023-01-05T15:57:18;8.70;92.90
39519;DHT22;25200;53.394;10.414;2023-01-05T15:59:46;8.70;92.70
39519;DHT22;25200;53.394;10.414;2023-01-05T16:02:30;8.70;92.70
39519;DHT22;25200;53.394;10.414;2023-01-05T16:10:20;8.70;92.70
39519;DHT22;25200;53.394;10.414;2023-01-05T16:12:48;8.60;92.70
39519;DHT22;25200;53.394;10.414;2023-01-05T16:15:17;8.60;92.70
39519;DHT22;25200;53.394;10.414;2023-01-05T16:17:47;8.60;92.70
39519;DHT22;25200;53.394;10.414;2023-01-05T16:20:20;8.60;92.70
39519;DHT22;25200;53.394;10.414;2023-01-05T16:22:48;8.60;92.90
39519;DHT22;25200;53.394;10.414;2023-01-05T16:27:49;8.60;92.70
39519;DHT22;25200;53.394;10.414;2023-01-05T16:30:29;8.60;92.70
39519;DHT22;25200;53.394;10.414;2023-01-05T16:32:57;8.60;92.70
39519;DHT22;25200;53.394;10.414;2023-01-05T16:43:24;8.60;92.70
39519;DHT22;25200;53.394;10.414;2023-01-05T16:45:53;8.60;92.70
39519;DHT22;25200;53.394;10.414;2023-01-05T16:51:04;8.50;92.70
39519;DHT22;25200;53.394;10.414;2023-01-05T16:53:30;8.50;92.70
39519;DHT22;25200;53.394;10.414;2023-01-05T16:55:57;8.50;92.70
39519;DHT22;25200;53.394;10.414;2023-01-05T17:03:43;8.50;92.70
39519;DHT22;25200;53.394;10.414;2023-01-05T17:08:46;8.60;92.70
39519;DHT22;25200;53.394;10.414;2023-01-05T17:11:12;8.50;92.70
39519;DHT22;25200;53.394;10.414;2023-01-05T17:13:44;8.50;92.70
39519;DHT22;25200;53.394;10.414;2023-01-05T17:16:12;8.50;92.70
39519;DHT22;25200;53.394;10.414;2023-01-05T17:18:38;8.50;92.70
39519;DHT22;25200;53.394;10.414;2023-01-05T17:21:05;8.50;92.70
39519;DHT22;25200;53.394;10.414;2023-01-05T17:23:38;8.50;92.70
39519;DHT22;25200;53.394;10.414;2023-01-05T17:26:10;8.50;92.70
39519;DHT22;25200;53.394;10.414;2023-01-05T17:28:37;8.50;92.70
39519;DHT22;25200;53.394;10.414;2023-01-05T17:31:03;8.50;92.70
39519;DHT22;25200;53.394;10.414;2023-01-05T17:33:29;8.50;92.70
39519;DHT22;25200;53.394;10.414;2023-01-05T17:35:55;8.50;92.70
39519;DHT22;25200;53.394;10.414;2023-01-05T17:38:20;8.50;92.70
39519;DHT22;25200;53.394;10.414;2023-01-05T17:40:46;8.50;92.70
39519;DHT22;25200;53.394;10.414;2023-01-05T17:43:12;8.50;92.70
39519;DHT22;25200;53.394;10.414;2023-01-05T17:45:40;8.50;92.70
39519;DHT22;25200;53.394;10.414;2023-01-05T17:48:06;8.50;92.70
39519;DHT22;25200;53.394;10.414;2023-01-05T17:50:33;8.50;92.70
39519;DHT22;25200;53.394;10.414;2023-01-05T17:53:00;8.50;92.70
39519;DHT22;25200;53.394;10.414;2023-01-05T17:55:27;8.40;92.70
39519;DHT22;25200;53.394;10.414;2023-01-05T17:57:54;8.40;92.70
39519;DHT22;25200;53.394;10.414;2023-01-05T18:00:21;8.40;92.70
39519;DHT22;25200;53.394;10.414;2023-01-05T18:02:48;8.30;92.60
39519;DHT22;25200;53.394;10.414;2023-01-05T18:05:15;8.30;92.70
39519;DHT22;25200;53.394;10.414;2023-01-05T18:07:41;8.30;92.70
39519;DHT22;25200;53.394;10.414;2023-01-05T18:10:29;8.30;92.80
39519;DHT22;25200;53.394;10.414;2023-01-05T18:12:55;8.30;92.80
39519;DHT22;25200;53.394;10.414;2023-01-05T18:15:21;8.30;92.80
39519;DHT22;25200;53.394;10.414;2023-01-05T18:17:46;8.30;92.80
39519;DHT22;25200;53.394;10.414;2023-01-05T18:20:13;8.20;92.70
39519;DHT22;25200;53.394;10.414;2023-01-05T18:22:40;8.20;92.70
39519;DHT22;25200;53.394;10.414;2023-01-05T18:25:06;8.20;92.70
39519;DHT22;25200;53.394;10.414;2023-01-05T18:27:32;8.20;92.70
39519;DHT22;25200;53.394;10.414;2023-01-05T18:30:03;8.20;92.70
39519;DHT22;25200;53.394;10.414;2023-01-05T18:32:29;8.10;92.70
39519;DHT22;25200;53.394;10.414;2023-01-05T18:34:54;8.10;92.60
39519;DHT22;25200;53.394;10.414;2023-01-05T18:37:20;8.00;92.60
39519;DHT22;25200;53.394;10.414;2023-01-05T18:39:46;8.00;92.60
39519;DHT22;25200;53.394;10.414;2023-01-05T18:42:11;7.90;92.60
39519;DHT22;25200;53.394;10.414;2023-01-05T18:44:37;7.90;92.70
39519;DHT22;25200;53.394;10.414;2023-01-05T18:47:03;7.80;92.70
39519;DHT22;25200;53.394;10.414;2023-01-05T18:49:29;7.80;92.70
39519;DHT22;25200;53.394;10.414;2023-01-05T18:51:54;7.80;92.70
39519;DHT22;25200;53.394;10.414;2023-01-05T18:54:20;7.70;92.60
39519;DHT22;25200;53.394;10.414;2023-01-05T18:56:46;7.60;92.60
39519;DHT22;25200;53.394;10.414;2023-01-05T18:59:12;7.60;92.70
39519;DHT22;25200;53.394;10.414;2023-01-05T19:01:38;7.60;92.60
39519;DHT22;25200;53.394;10.414;2023-01-05T19:04:12;7.60;92.70
39519;DHT22;25200;53.394;10.414;2023-01-05T19:06:38;7.50;92.70
39519;DHT22;25200;53.394;10.414;2023-01-05T19:09:06;7.50;92.70
39519;DHT22;25200;53.394;10.414;2023-01-05T19:11:33;7.50;92.70
39519;DHT22;25200;53.394;10.414;2023-01-05T19:14:00;7.50;92.70
39519;DHT22;25200;53.394;10.414;2023-01-05T19:16:28;7.40;92.60